createdAt,value
2018-07-09T00:00:08.591Z,0.00
2018-07-09T00:02:01.509Z,0.00
2018-07-09T00:03:01.532Z,0.00
2018-07-09T00:04:54.461Z,0.00
2018-07-09T00:05:54.464Z,0.00
2018-07-09T00:07:47.394Z,0.00
2018-07-09T00:08:47.393Z,0.00
2018-07-09T00:10:40.308Z,0.00
2018-07-09T00:11:40.330Z,0.00
2018-07-09T00:13:33.478Z,0.00
2018-07-09T00:14:33.458Z,0.00
2018-07-09T00:16:27.365Z,0.00
2018-07-09T00:17:27.386Z,0.00
2018-07-09T00:19:20.321Z,0.00
2018-07-09T00:20:20.322Z,0.00
2018-07-09T00:22:13.241Z,0.00
2018-07-09T00:23:13.258Z,0.00
2018-07-09T00:25:06.212Z,0.00
2018-07-09T00:26:06.200Z,0.00
2018-07-09T00:27:59.110Z,0.00
2018-07-09T00:28:59.210Z,0.00
2018-07-09T00:30:52.075Z,0.00
2018-07-09T00:31:52.064Z,0.00
2018-07-09T00:33:44.994Z,0.00
2018-07-09T00:34:44.996Z,0.00
2018-07-09T00:36:37.914Z,0.00
2018-07-09T00:37:37.936Z,0.00
2018-07-09T00:39:30.867Z,0.00
2018-07-09T00:40:30.868Z,0.00
2018-07-09T00:42:23.778Z,0.00
2018-07-09T00:43:23.802Z,0.00
2018-07-09T00:45:16.734Z,0.00
2018-07-09T00:46:16.736Z,0.00
2018-07-09T00:48:09.647Z,0.00
2018-07-09T00:49:09.666Z,0.00
2018-07-09T00:51:02.601Z,0.00
2018-07-09T00:52:02.601Z,0.00
2018-07-09T00:53:55.547Z,0.00
2018-07-09T00:54:55.533Z,0.00
2018-07-09T00:56:48.478Z,0.00
2018-07-09T00:57:48.467Z,0.00
2018-07-09T00:59:41.400Z,0.00
2018-07-09T01:00:41.403Z,0.00
2018-07-09T01:02:34.311Z,0.00
2018-07-09T01:03:34.331Z,0.00
2018-07-09T01:05:27.269Z,0.00
2018-07-09T01:06:27.262Z,0.00
2018-07-09T01:08:20.180Z,0.00
2018-07-09T01:09:20.193Z,0.00
2018-07-09T01:11:13.181Z,0.00
2018-07-09T01:12:13.126Z,0.00
2018-07-09T01:14:06.058Z,0.00
2018-07-09T01:15:06.059Z,0.00
2018-07-09T01:16:59.036Z,0.00
2018-07-09T01:17:58.989Z,0.00
2018-07-09T01:19:51.920Z,0.00
2018-07-09T01:20:51.923Z,0.00
2018-07-09T01:22:44.838Z,0.00
2018-07-09T01:23:44.862Z,0.00
2018-07-09T01:25:37.794Z,0.00
2018-07-09T01:26:37.804Z,0.00
2018-07-09T01:28:30.704Z,0.00
2018-07-09T01:29:30.724Z,0.00
2018-07-09T01:31:23.656Z,0.00
2018-07-09T01:32:23.656Z,0.00
2018-07-09T01:34:16.602Z,0.00
2018-07-09T01:35:16.589Z,0.00
2018-07-09T01:37:09.503Z,0.00
2018-07-09T01:38:09.524Z,0.00
2018-07-09T01:40:02.473Z,0.00
2018-07-09T01:41:02.454Z,0.00
2018-07-09T01:42:55.364Z,0.00
2018-07-09T01:43:55.385Z,0.00
2018-07-09T01:45:48.319Z,0.00
2018-07-09T01:46:48.316Z,0.00
2018-07-09T01:48:41.226Z,0.00
2018-07-09T01:49:41.248Z,0.00
2018-07-09T01:51:34.212Z,0.00
2018-07-09T01:52:34.180Z,0.00
2018-07-09T01:54:27.091Z,0.00
2018-07-09T01:55:27.111Z,0.00
2018-07-09T01:57:20.040Z,0.00
2018-07-09T01:58:20.041Z,0.00
2018-07-09T02:00:13.975Z,0.00
2018-07-09T02:01:13.973Z,0.00
2018-07-09T02:03:07.031Z,0.00
2018-07-09T02:04:07.052Z,0.00
2018-07-09T02:06:00.011Z,0.00
2018-07-09T02:06:59.987Z,0.00
2018-07-09T02:08:53.387Z,0.00
2018-07-09T02:09:53.410Z,0.00
2018-07-09T02:11:46.343Z,0.00
2018-07-09T02:12:46.341Z,0.00
2018-07-09T02:14:40.281Z,0.00
2018-07-09T02:15:40.270Z,0.00
2018-07-09T02:17:33.201Z,0.00
2018-07-09T02:18:33.203Z,0.00
2018-07-09T02:20:26.165Z,0.00
2018-07-09T02:21:26.130Z,0.00
2018-07-09T02:23:19.046Z,0.00
2018-07-09T02:24:19.062Z,0.00
2018-07-09T02:26:12.000Z,0.00
2018-07-09T02:27:11.997Z,0.00
2018-07-09T02:29:04.905Z,0.00
2018-07-09T02:30:04.924Z,0.00
2018-07-09T02:31:57.891Z,4.00
2018-07-09T02:32:57.853Z,4.00
2018-07-09T02:34:50.831Z,4.00
2018-07-09T02:35:50.783Z,0.00
2018-07-09T02:37:43.713Z,4.00
2018-07-09T02:38:43.712Z,4.00
2018-07-09T02:40:36.635Z,4.00
2018-07-09T02:41:36.654Z,8.00
2018-07-09T02:43:29.729Z,8.00
2018-07-09T02:44:29.731Z,8.00
2018-07-09T02:46:22.663Z,12.00
2018-07-09T02:47:22.664Z,12.00
2018-07-09T02:49:15.622Z,12.00
2018-07-09T02:50:15.594Z,16.00
2018-07-09T02:52:08.528Z,20.00
2018-07-09T02:53:08.524Z,20.00
2018-07-09T02:55:01.432Z,28.00
2018-07-09T02:56:01.456Z,32.00
2018-07-09T02:57:54.401Z,36.00
2018-07-09T02:58:54.380Z,40.00
2018-07-09T03:00:47.389Z,48.00
2018-07-09T03:01:47.310Z,56.00
2018-07-09T03:03:40.243Z,68.00
2018-07-09T03:04:40.240Z,76.00
2018-07-09T03:06:33.340Z,88.00
2018-07-09T03:07:33.363Z,100.00
2018-07-09T03:09:26.298Z,120.00
2018-07-09T03:10:26.297Z,128.00
2018-07-09T03:12:19.248Z,148.00
2018-07-09T03:13:19.224Z,160.00
2018-07-09T03:15:12.134Z,180.00
2018-07-09T03:16:12.154Z,188.00
2018-07-09T03:18:05.082Z,212.00
2018-07-09T03:19:05.179Z,224.00
2018-07-09T03:20:59.037Z,248.00
2018-07-09T03:21:59.006Z,260.00
2018-07-09T03:23:51.940Z,280.00
2018-07-09T03:24:51.934Z,296.00
2018-07-09T03:26:44.842Z,320.00
2018-07-09T03:27:44.861Z,332.00
2018-07-09T03:29:37.817Z,360.00
2018-07-09T03:30:37.798Z,380.00
2018-07-09T03:32:30.732Z,420.00
2018-07-09T03:33:30.719Z,440.00
2018-07-09T03:35:23.697Z,480.00
2018-07-09T03:36:23.647Z,500.00
2018-07-09T03:38:16.581Z,536.00
2018-07-09T03:39:16.578Z,556.00
2018-07-09T03:41:09.507Z,592.00
2018-07-09T03:42:09.505Z,616.00
2018-07-09T03:44:02.432Z,656.00
2018-07-09T03:45:02.432Z,676.00
2018-07-09T03:46:56.337Z,720.00
2018-07-09T03:47:56.357Z,740.00
2018-07-09T03:49:49.291Z,784.00
2018-07-09T03:50:49.289Z,820.00
2018-07-09T03:52:42.197Z,896.00
2018-07-09T03:53:42.216Z,948.00
2018-07-09T03:55:35.147Z,1024.00
2018-07-09T03:56:35.145Z,1012.00
2018-07-09T03:58:28.076Z,1008.00
2018-07-09T03:59:28.076Z,1036.00
2018-07-09T04:01:20.984Z,1124.00
2018-07-09T04:02:21.039Z,1204.00
2018-07-09T04:04:13.977Z,1320.00
2018-07-09T04:05:13.931Z,1300.00
2018-07-09T04:07:06.843Z,1368.00
2018-07-09T04:08:06.862Z,1456.00
2018-07-09T04:09:59.794Z,1956.00
2018-07-09T04:10:59.797Z,2572.00
2018-07-09T04:12:52.698Z,3760.00
2018-07-09T04:13:52.722Z,4504.00
2018-07-09T04:15:45.647Z,4856.00
2018-07-09T04:16:45.645Z,4960.00
2018-07-09T04:18:38.575Z,5148.00
2018-07-09T04:19:38.576Z,5244.00
2018-07-09T04:21:31.487Z,5444.00
2018-07-09T04:22:31.506Z,5536.00
2018-07-09T04:24:24.439Z,5776.00
2018-07-09T04:25:24.440Z,5908.00
2018-07-09T04:27:17.353Z,6128.00
2018-07-09T04:28:17.373Z,6220.00
2018-07-09T04:30:11.434Z,6520.00
2018-07-09T04:31:11.436Z,6728.00
2018-07-09T04:33:04.350Z,7116.00
2018-07-09T04:34:04.395Z,7332.00
2018-07-09T04:35:57.322Z,7840.00
2018-07-09T04:36:57.312Z,8108.00
2018-07-09T04:38:50.271Z,8940.00
2018-07-09T04:39:50.250Z,9776.00
2018-07-09T04:41:44.683Z,12160.00
2018-07-09T04:42:44.694Z,12352.00
2018-07-09T04:44:37.631Z,11456.00
2018-07-09T04:45:37.640Z,11392.00
2018-07-09T04:47:30.552Z,10604.00
2018-07-09T04:48:30.579Z,10240.00
2018-07-09T04:50:23.514Z,10152.00
2018-07-09T04:51:23.524Z,10140.00
2018-07-09T04:53:16.438Z,10172.00
2018-07-09T04:54:16.467Z,10260.00
2018-07-09T04:56:09.411Z,10548.00
2018-07-09T04:57:09.409Z,10704.00
2018-07-09T04:59:02.338Z,10672.00
2018-07-09T05:00:02.362Z,10908.00
2018-07-09T05:01:55.442Z,11056.00
2018-07-09T05:02:55.443Z,11044.00
2018-07-09T05:04:48.382Z,11040.00
2018-07-09T05:05:48.413Z,11148.00
2018-07-09T05:07:41.317Z,11188.00
2018-07-09T05:08:41.344Z,11192.00
2018-07-09T05:10:34.283Z,11652.00
2018-07-09T05:11:34.290Z,11776.00
2018-07-09T05:13:27.213Z,11800.00
2018-07-09T05:14:27.240Z,11948.00
2018-07-09T05:16:20.190Z,12148.00
2018-07-09T05:17:20.191Z,12328.00
2018-07-09T05:19:13.120Z,13020.00
2018-07-09T05:20:13.143Z,13456.00
2018-07-09T05:22:07.084Z,14496.00
2018-07-09T05:23:07.094Z,14624.00
2018-07-09T05:25:00.077Z,14432.00
2018-07-09T05:26:00.047Z,15424.00
2018-07-09T05:27:52.973Z,16832.00
2018-07-09T05:28:53.001Z,17760.00
2018-07-09T05:30:45.953Z,19456.00
2018-07-09T05:31:45.955Z,19936.00
2018-07-09T05:33:38.878Z,20928.00
2018-07-09T05:34:38.909Z,21152.00
2018-07-09T05:36:31.855Z,21888.00
2018-07-09T05:37:31.864Z,21216.00
2018-07-09T05:39:24.805Z,21824.00
2018-07-09T05:40:24.837Z,22048.00
2018-07-09T05:42:18.784Z,21952.00
2018-07-09T05:43:18.789Z,22432.00
2018-07-09T05:45:11.754Z,23360.00
2018-07-09T05:46:11.754Z,23968.00
2018-07-09T05:48:04.687Z,24480.00
2018-07-09T05:49:04.711Z,24640.00
2018-07-09T05:50:57.665Z,24864.00
2018-07-09T05:51:57.673Z,24768.00
2018-07-09T05:53:50.603Z,25344.00
2018-07-09T05:54:50.631Z,26176.00
2018-07-09T05:56:43.585Z,26144.00
2018-07-09T05:57:43.594Z,25408.00
2018-07-09T05:59:36.522Z,26112.00
2018-07-09T06:00:36.553Z,26016.00
2018-07-09T06:02:29.497Z,27232.00
2018-07-09T06:03:29.509Z,27680.00
2018-07-09T06:05:22.463Z,27680.00
2018-07-09T06:06:22.468Z,28000.00
2018-07-09T06:08:15.398Z,27616.00
2018-07-09T06:09:15.425Z,27648.00
2018-07-09T06:11:08.430Z,29152.00
2018-07-09T06:12:08.388Z,28800.00
2018-07-09T06:14:01.321Z,28352.00
2018-07-09T06:15:01.402Z,28832.00
2018-07-09T06:16:54.302Z,29600.00
2018-07-09T06:17:54.312Z,30560.00
2018-07-09T06:19:47.295Z,34432.00
2018-07-09T06:20:47.274Z,17088.00
2018-07-09T06:22:40.229Z,15136.00
2018-07-09T06:23:40.237Z,14692.00
2018-07-09T06:25:33.234Z,25696.00
2018-07-09T06:26:33.206Z,17472.00
2018-07-09T06:28:26.130Z,32256.00
2018-07-09T06:29:26.162Z,40000.00
2018-07-09T06:31:19.114Z,25632.00
2018-07-09T06:32:19.121Z,21920.00
2018-07-09T06:34:12.072Z,21120.00
2018-07-09T06:35:12.087Z,18112.00
2018-07-09T06:37:05.040Z,14868.00
2018-07-09T06:38:05.045Z,13000.00
2018-07-09T06:39:57.978Z,11868.00
2018-07-09T06:40:58.009Z,11408.00
2018-07-09T06:42:50.957Z,11536.00
2018-07-09T06:43:50.970Z,11644.00
2018-07-09T06:45:43.896Z,11220.00
2018-07-09T06:46:43.925Z,10928.00
2018-07-09T06:48:36.873Z,48672.00
2018-07-09T06:49:36.878Z,39936.00
2018-07-09T06:51:29.829Z,40672.00
2018-07-09T06:52:29.833Z,19456.00
2018-07-09T06:54:22.757Z,34752.00
2018-07-09T06:55:22.786Z,45600.00
2018-07-09T06:57:15.738Z,14440.00
2018-07-09T06:58:15.743Z,17376.00
2018-07-09T07:00:08.699Z,18432.00
2018-07-09T07:01:08.699Z,15020.00
2018-07-09T07:03:01.644Z,17120.00
2018-07-09T07:04:01.650Z,55584.00
2018-07-09T07:05:54.576Z,48608.00
2018-07-09T07:06:54.606Z,18080.00
2018-07-09T07:08:47.633Z,19584.00
2018-07-09T07:09:47.564Z,28064.00
2018-07-09T07:11:40.490Z,17024.00
2018-07-09T07:12:40.515Z,18240.00
2018-07-09T07:14:33.462Z,16800.00
2018-07-09T07:15:33.473Z,18816.00
2018-07-09T07:17:26.418Z,25280.00
2018-07-09T07:18:26.426Z,19616.00
2018-07-09T07:20:19.353Z,19296.00
2018-07-09T07:21:19.382Z,19680.00
2018-07-09T07:23:12.327Z,17760.00
2018-07-09T07:24:12.335Z,21440.00
2018-07-09T07:26:05.262Z,39392.00
2018-07-09T07:27:05.290Z,33152.00
2018-07-09T07:28:58.237Z,19200.00
2018-07-09T07:29:58.245Z,20480.00
2018-07-09T07:31:51.176Z,17920.00
2018-07-09T07:32:51.280Z,18432.00
2018-07-09T07:34:44.158Z,18144.00
2018-07-09T07:35:44.163Z,18400.00
2018-07-09T07:37:37.177Z,18080.00
2018-07-09T07:38:37.120Z,18688.00
2018-07-09T07:40:30.048Z,18400.00
2018-07-09T07:41:30.076Z,18752.00
2018-07-09T07:43:23.029Z,19520.00
2018-07-09T07:44:23.035Z,20512.00
2018-07-09T07:46:15.959Z,21184.00
2018-07-09T07:47:15.988Z,20992.00
2018-07-09T07:49:08.941Z,19264.00
2018-07-09T07:50:08.966Z,18848.00
2018-07-09T07:52:01.927Z,19744.00
2018-07-09T07:53:01.898Z,20096.00
2018-07-09T07:54:54.845Z,18720.00
2018-07-09T07:55:54.896Z,18176.00
2018-07-09T07:57:47.807Z,18240.00
2018-07-09T07:58:47.811Z,18400.00
2018-07-09T08:00:40.758Z,19200.00
2018-07-09T08:01:40.768Z,19488.00
2018-07-09T08:03:33.720Z,18496.00
2018-07-09T08:04:33.722Z,18048.00
2018-07-09T08:06:26.651Z,16864.00
2018-07-09T08:07:26.681Z,16292.00
2018-07-09T08:09:19.672Z,15136.00
2018-07-09T08:10:19.640Z,14828.00
2018-07-09T08:13:00.556Z,13096.00
2018-07-09T08:13:27.984Z,13032.00
2018-07-09T08:15:05.577Z,15592.00
2018-07-09T08:16:05.563Z,16068.00
2018-07-09T08:17:58.518Z,17312.00
2018-07-09T08:18:58.525Z,18400.00
2018-07-09T08:20:51.457Z,19008.00
2018-07-09T08:21:51.483Z,20160.00
2018-07-09T08:23:44.445Z,18336.00
2018-07-09T08:24:44.520Z,18272.00
2018-07-09T08:26:38.371Z,17344.00
2018-07-09T08:27:38.402Z,18208.00
2018-07-09T08:29:31.354Z,16492.00
2018-07-09T08:30:31.359Z,15904.00
2018-07-09T08:32:24.287Z,15688.00
2018-07-09T08:33:24.318Z,15156.00
2018-07-09T08:35:17.269Z,15092.00
2018-07-09T08:36:17.273Z,13996.00
2018-07-09T08:38:10.204Z,13068.00
2018-07-09T08:39:10.228Z,13228.00
2018-07-09T08:41:03.180Z,12204.00
2018-07-09T08:42:03.190Z,12900.00
2018-07-09T08:43:56.137Z,13168.00
2018-07-09T08:44:56.139Z,13384.00
2018-07-09T08:46:49.065Z,14632.00
2018-07-09T08:47:49.094Z,14792.00
2018-07-09T08:49:42.040Z,12840.00
2018-07-09T08:50:42.047Z,11852.00
2018-07-09T08:52:34.970Z,14220.00
2018-07-09T08:53:35.003Z,15016.00
2018-07-09T08:55:27.951Z,14504.00
2018-07-09T08:56:27.955Z,14880.00
2018-07-09T08:58:20.882Z,14976.00
2018-07-09T08:59:20.909Z,13728.00
2018-07-09T09:01:13.861Z,11532.00
2018-07-09T09:02:13.864Z,11280.00
2018-07-09T09:04:06.811Z,12548.00
2018-07-09T09:05:06.820Z,13412.00
2018-07-09T09:06:59.743Z,13580.00
2018-07-09T09:07:59.774Z,13316.00
2018-07-09T09:09:52.718Z,13316.00
2018-07-09T09:10:52.727Z,14000.00
2018-07-09T09:12:45.653Z,14232.00
2018-07-09T09:13:45.680Z,15812.00
2018-07-09T09:15:38.626Z,19072.00
2018-07-09T09:16:38.693Z,20736.00
2018-07-09T09:18:31.559Z,13584.00
2018-07-09T09:19:31.594Z,11888.00
2018-07-09T09:21:24.539Z,10084.00
2018-07-09T09:22:24.543Z,8132.00
2018-07-09T09:24:17.504Z,8840.00
2018-07-09T09:25:17.502Z,10384.00
2018-07-09T09:27:10.429Z,9192.00
2018-07-09T09:28:10.456Z,9060.00
2018-07-09T09:30:03.407Z,9344.00
2018-07-09T09:31:03.417Z,10260.00
2018-07-09T09:32:56.338Z,13500.00
2018-07-09T09:33:56.366Z,14408.00
2018-07-09T09:35:49.320Z,14984.00
2018-07-09T09:36:49.322Z,16500.00
2018-07-09T09:38:42.248Z,15776.00
2018-07-09T09:39:42.276Z,14648.00
2018-07-09T09:41:35.225Z,13788.00
2018-07-09T09:42:35.228Z,12748.00
2018-07-09T09:44:28.153Z,11472.00
2018-07-09T09:45:28.182Z,10852.00
2018-07-09T09:47:21.131Z,11596.00
2018-07-09T09:48:21.142Z,13768.00
2018-07-09T09:50:14.090Z,14400.00
2018-07-09T09:51:14.096Z,13964.00
2018-07-09T09:53:08.025Z,13084.00
2018-07-09T09:54:08.054Z,12488.00
2018-07-09T09:56:01.147Z,9936.00
2018-07-09T09:57:01.152Z,11688.00
2018-07-09T09:58:55.117Z,14044.00
2018-07-09T09:59:55.104Z,12480.00
2018-07-09T10:01:48.057Z,9844.00
2018-07-09T10:02:48.065Z,10472.00
2018-07-09T10:04:41.020Z,18688.00
2018-07-09T10:05:41.020Z,22400.00
2018-07-09T10:07:33.966Z,18240.00
2018-07-09T10:08:41.152Z,12868.00
2018-07-09T10:10:34.076Z,8216.00
2018-07-09T10:11:26.926Z,9012.00
2018-07-09T10:13:19.858Z,12604.00
2018-07-09T10:14:19.884Z,15232.00
2018-07-09T10:16:12.835Z,18144.00
2018-07-09T10:17:12.845Z,19776.00
2018-07-09T10:19:05.771Z,18528.00
2018-07-09T10:20:05.796Z,17216.00
2018-07-09T10:21:58.746Z,13376.00
2018-07-09T10:22:58.915Z,11820.00
2018-07-09T10:24:51.676Z,14420.00
2018-07-09T10:25:51.709Z,14480.00
2018-07-09T10:27:44.662Z,17152.00
2018-07-09T10:28:44.660Z,18144.00
2018-07-09T10:30:37.640Z,19456.00
2018-07-09T10:31:37.650Z,17696.00
2018-07-09T10:33:30.582Z,14788.00
2018-07-09T10:34:30.614Z,13280.00
2018-07-09T10:36:23.561Z,12288.00
2018-07-09T10:37:23.570Z,12948.00
2018-07-09T10:39:16.993Z,12888.00
2018-07-09T10:40:17.025Z,12444.00
2018-07-09T10:42:09.974Z,12644.00
2018-07-09T10:43:09.978Z,10848.00
2018-07-09T10:45:02.906Z,9480.00
2018-07-09T10:46:02.941Z,9416.00
2018-07-09T10:47:55.886Z,10780.00
2018-07-09T10:48:55.891Z,12872.00
2018-07-09T10:50:48.853Z,11176.00
2018-07-09T10:51:48.853Z,10540.00
2018-07-09T10:53:42.773Z,12044.00
2018-07-09T10:54:42.803Z,12992.00
2018-07-09T10:56:35.755Z,12052.00
2018-07-09T10:57:35.766Z,12116.00
2018-07-09T10:59:29.185Z,9016.00
2018-07-09T11:00:29.210Z,7356.00
2018-07-09T11:02:22.160Z,6340.00
2018-07-09T11:03:22.167Z,7472.00
2018-07-09T11:05:15.096Z,10492.00
2018-07-09T11:06:15.125Z,12436.00
2018-07-09T11:08:08.075Z,15112.00
2018-07-09T11:09:08.080Z,13816.00
2018-07-09T11:11:01.024Z,11776.00
2018-07-09T11:12:01.040Z,11096.00
2018-07-09T11:13:54.223Z,11164.00
2018-07-09T11:14:54.168Z,11632.00
2018-07-09T11:16:47.116Z,10776.00
2018-07-09T11:17:47.135Z,10728.00
2018-07-09T11:19:40.053Z,11528.00
2018-07-09T11:20:40.082Z,11612.00
2018-07-09T11:22:33.036Z,10864.00
2018-07-09T11:23:33.037Z,10788.00
2018-07-09T11:25:25.971Z,11144.00
2018-07-09T11:26:33.167Z,11364.00
2018-07-09T11:28:19.034Z,10660.00
2018-07-09T11:29:19.058Z,10264.00
2018-07-09T11:31:12.099Z,9116.00
2018-07-09T11:32:12.132Z,8504.00
2018-07-09T11:34:05.031Z,7596.00
2018-07-09T11:35:05.072Z,6420.00
2018-07-09T11:36:58.302Z,6240.00
2018-07-09T11:37:59.932Z,6744.00
2018-07-09T11:39:51.663Z,7660.00
2018-07-09T11:40:51.677Z,8644.00
2018-07-09T11:42:44.744Z,10824.00
2018-07-09T11:43:44.751Z,11900.00
2018-07-09T11:45:37.769Z,11576.00
2018-07-09T11:46:37.795Z,11780.00
2018-07-09T11:48:30.836Z,11588.00
2018-07-09T11:49:30.857Z,10904.00
2018-07-09T11:51:23.797Z,9616.00
2018-07-09T11:52:23.817Z,9096.00
2018-07-09T11:54:16.756Z,8744.00
2018-07-09T11:55:16.759Z,8944.00
2018-07-09T11:57:09.772Z,8660.00
2018-07-09T11:58:09.711Z,8084.00
2018-07-09T12:00:02.643Z,7708.00
2018-07-09T12:01:02.669Z,8824.00
2018-07-09T12:02:55.609Z,11468.00
2018-07-09T12:03:55.621Z,10748.00
2018-07-09T12:05:48.561Z,8916.00
2018-07-09T12:06:48.593Z,8888.00
2018-07-09T12:08:41.524Z,11288.00
2018-07-09T12:09:41.530Z,13656.00
2018-07-09T12:11:34.461Z,17152.00
2018-07-09T12:12:34.483Z,17824.00
2018-07-09T12:14:27.428Z,18048.00
2018-07-09T12:15:27.437Z,17280.00
2018-07-09T12:17:20.388Z,14296.00
2018-07-09T12:18:20.391Z,13624.00
2018-07-09T12:20:13.353Z,14984.00
2018-07-09T12:21:13.349Z,14288.00
2018-07-09T12:23:06.300Z,14004.00
2018-07-09T12:24:06.308Z,14484.00
2018-07-09T12:26:00.234Z,15120.00
2018-07-09T12:27:00.270Z,14960.00
2018-07-09T12:28:53.227Z,13260.00
2018-07-09T12:29:53.218Z,13136.00
2018-07-09T12:31:46.147Z,13164.00
2018-07-09T12:32:46.176Z,12856.00
2018-07-09T12:34:39.615Z,12788.00
2018-07-09T12:35:39.625Z,13836.00
2018-07-09T12:37:32.584Z,14956.00
2018-07-09T12:38:32.587Z,15208.00
2018-07-09T12:40:25.558Z,15392.00
2018-07-09T12:41:25.547Z,15192.00
2018-07-09T12:43:18.508Z,15456.00
2018-07-09T12:44:18.508Z,15780.00
2018-07-09T12:46:11.500Z,14176.00
2018-07-09T12:47:11.474Z,14236.00
2018-07-09T12:49:13.122Z,16060.00
2018-07-09T12:50:04.438Z,18208.00
2018-07-09T12:51:57.368Z,17600.00
2018-07-09T12:52:57.396Z,17440.00
2018-07-09T12:54:50.848Z,15708.00
2018-07-09T12:55:50.883Z,15096.00
2018-07-09T12:57:43.792Z,15332.00
2018-07-09T12:58:43.823Z,14368.00
2018-07-09T13:00:36.784Z,14348.00
2018-07-09T13:01:36.841Z,14528.00
2018-07-09T13:03:29.759Z,13172.00
2018-07-09T13:04:29.750Z,12620.00
2018-07-09T13:06:22.683Z,11996.00
2018-07-09T13:07:22.808Z,11892.00
2018-07-09T13:09:15.667Z,11776.00
2018-07-09T13:10:15.676Z,11752.00
2018-07-09T13:12:08.606Z,12232.00
2018-07-09T13:13:08.638Z,12632.00
2018-07-09T13:15:03.271Z,12572.00
2018-07-09T13:16:04.508Z,12052.00
2018-07-09T13:17:57.625Z,11224.00
2018-07-09T13:18:57.672Z,11224.00
2018-07-09T13:20:50.614Z,14080.00
2018-07-09T13:21:50.669Z,14492.00
2018-07-09T13:23:43.581Z,13512.00
2018-07-09T13:24:43.587Z,12592.00
2018-07-09T13:26:36.514Z,11104.00
2018-07-09T13:27:36.546Z,11024.00
2018-07-09T13:29:29.496Z,10964.00
2018-07-09T13:30:29.508Z,11120.00
2018-07-09T13:32:22.444Z,12128.00
2018-07-09T13:33:22.476Z,12204.00
2018-07-09T13:35:15.426Z,10760.00
2018-07-09T13:36:15.437Z,10184.00
2018-07-09T13:38:08.862Z,10856.00
2018-07-09T13:39:08.891Z,11288.00
2018-07-09T13:41:01.843Z,11400.00
2018-07-09T13:42:01.849Z,11572.00
2018-07-09T13:43:55.829Z,13124.00
2018-07-09T13:44:55.828Z,13604.00
2018-07-09T13:46:49.753Z,14484.00
2018-07-09T13:47:49.779Z,14776.00
2018-07-09T13:49:42.777Z,14476.00
2018-07-09T13:50:42.767Z,14728.00
2018-07-09T13:52:35.701Z,13792.00
2018-07-09T13:53:35.748Z,13160.00
2018-07-09T13:55:28.684Z,11064.00
2018-07-09T13:56:28.704Z,9920.00
2018-07-09T13:58:21.819Z,7496.00
2018-07-09T13:59:21.792Z,6332.00
2018-07-09T14:01:15.293Z,5512.00
2018-07-09T14:02:15.300Z,4744.00
2018-07-09T14:04:09.274Z,3124.00
2018-07-09T14:05:09.257Z,2452.00
2018-07-09T14:07:02.681Z,1932.00
2018-07-09T14:08:02.709Z,1868.00
2018-07-09T14:09:55.660Z,1512.00
2018-07-09T14:10:55.667Z,1232.00
2018-07-09T14:12:48.594Z,1040.00
2018-07-09T14:13:48.624Z,1020.00
2018-07-09T14:15:41.600Z,1036.00
2018-07-09T14:16:41.585Z,1092.00
2018-07-09T14:18:34.512Z,1320.00
2018-07-09T14:19:34.542Z,1484.00
2018-07-09T14:21:27.492Z,1612.00
2018-07-09T14:22:27.498Z,1752.00
2018-07-09T14:24:21.917Z,2128.00
2018-07-09T14:25:21.949Z,2308.00
2018-07-09T14:27:14.897Z,2656.00
2018-07-09T14:28:14.905Z,2860.00
2018-07-09T14:30:07.849Z,3468.00
2018-07-09T14:31:07.862Z,4220.00
2018-07-09T14:33:00.785Z,7444.00
2018-07-09T14:34:00.812Z,9604.00
2018-07-09T14:35:53.752Z,12560.00
2018-07-09T14:36:53.770Z,13312.00
2018-07-09T14:38:46.688Z,14104.00
2018-07-09T14:39:46.718Z,14180.00
2018-07-09T14:41:39.674Z,13468.00
2018-07-09T14:42:39.673Z,12668.00
2018-07-09T14:44:32.600Z,12268.00
2018-07-09T14:45:32.628Z,12496.00
2018-07-09T14:47:25.578Z,12284.00
2018-07-09T14:48:25.591Z,11808.00
2018-07-09T14:50:18.544Z,10992.00
2018-07-09T14:51:18.542Z,10548.00
2018-07-09T14:53:11.473Z,10008.00
2018-07-09T14:54:11.505Z,9944.00
2018-07-09T14:56:04.469Z,10108.00
2018-07-09T14:57:04.480Z,10212.00
2018-07-09T14:58:57.911Z,10052.00
2018-07-09T14:59:57.926Z,9376.00
2018-07-09T15:01:50.908Z,7552.00
2018-07-09T15:02:50.891Z,7260.00
2018-07-09T15:04:43.822Z,7844.00
2018-07-09T15:05:43.851Z,8336.00
2018-07-09T15:07:36.802Z,9656.00
2018-07-09T15:08:36.810Z,10076.00
2018-07-09T15:10:29.832Z,9276.00
2018-07-09T15:11:29.770Z,8832.00
2018-07-09T15:13:22.700Z,8164.00
2018-07-09T15:14:22.732Z,8000.00
2018-07-09T15:16:15.682Z,7660.00
2018-07-09T15:17:15.692Z,7468.00
2018-07-09T15:19:08.651Z,6800.00
2018-07-09T15:20:08.685Z,6468.00
2018-07-09T15:22:01.728Z,6620.00
2018-07-09T15:23:01.740Z,6984.00
2018-07-09T15:25:04.773Z,8584.00
2018-07-09T15:26:04.696Z,9360.00
2018-07-09T15:27:57.641Z,12140.00
2018-07-09T15:28:57.646Z,12916.00
2018-07-09T15:30:50.664Z,11712.00
2018-07-09T15:31:50.599Z,10476.00
2018-07-09T15:33:43.591Z,8744.00
2018-07-09T15:34:43.588Z,8532.00
2018-07-09T15:36:36.530Z,9040.00
2018-07-09T15:37:36.536Z,9600.00
2018-07-09T15:39:29.459Z,9648.00
2018-07-09T15:40:29.576Z,9064.00
2018-07-09T15:42:22.435Z,7516.00
2018-07-09T15:43:22.442Z,6436.00
2018-07-09T15:45:15.374Z,6376.00
2018-07-09T15:46:15.390Z,6628.00
2018-07-09T15:48:08.354Z,6704.00
2018-07-09T15:49:08.377Z,7332.00
2018-07-09T15:51:01.268Z,8440.00
2018-07-09T15:52:01.293Z,8548.00
2018-07-09T15:53:54.236Z,8332.00
2018-07-09T15:54:54.243Z,8524.00
2018-07-09T15:56:47.361Z,9156.00
2018-07-09T15:57:47.342Z,9348.00
2018-07-09T15:59:40.329Z,8848.00
2018-07-09T16:00:40.332Z,8508.00
2018-07-09T16:02:33.271Z,8092.00
2018-07-09T16:03:33.302Z,7616.00
2018-07-09T16:05:27.409Z,7376.00
2018-07-09T16:06:27.430Z,8076.00
2018-07-09T16:08:20.483Z,7948.00
2018-07-09T16:09:20.424Z,6544.00
2018-07-09T16:11:13.345Z,4544.00
2018-07-09T16:12:13.378Z,4772.00
2018-07-09T16:14:06.425Z,5404.00
2018-07-09T16:15:06.334Z,5292.00
2018-07-09T16:17:00.372Z,4572.00
2018-07-09T16:18:00.312Z,4204.00
2018-07-09T16:19:53.224Z,3808.00
2018-07-09T16:20:53.260Z,3904.00
2018-07-09T16:22:47.213Z,4664.00
2018-07-09T16:23:47.198Z,5296.00
2018-07-09T16:25:40.168Z,6516.00
2018-07-09T16:26:40.185Z,6992.00
2018-07-09T16:28:33.188Z,7616.00
2018-07-09T16:29:33.149Z,7928.00
2018-07-09T16:31:26.103Z,8192.00
2018-07-09T16:32:26.101Z,8252.00
2018-07-09T16:34:19.038Z,8040.00
2018-07-09T16:35:19.048Z,8020.00
2018-07-09T16:37:12.144Z,8120.00
2018-07-09T16:38:12.179Z,8288.00
2018-07-09T16:40:05.357Z,8660.00
2018-07-09T16:41:05.335Z,8720.00
2018-07-09T16:42:58.290Z,8644.00
2018-07-09T16:43:58.295Z,8308.00
2018-07-09T16:45:51.212Z,7672.00
2018-07-09T16:46:51.386Z,7316.00
2018-07-09T16:48:44.216Z,7244.00
2018-07-09T16:49:44.200Z,7240.00
2018-07-09T16:51:37.132Z,7492.00
2018-07-09T16:52:37.243Z,7596.00
2018-07-09T16:54:30.144Z,7424.00
2018-07-09T16:55:30.131Z,7408.00
2018-07-09T16:57:23.034Z,7228.00
2018-07-09T16:58:23.061Z,7080.00
2018-07-09T17:00:16.004Z,6664.00
2018-07-09T17:01:16.012Z,6776.00
2018-07-09T17:03:08.971Z,6520.00
2018-07-09T17:04:08.969Z,6572.00
2018-07-09T17:06:01.891Z,6760.00
2018-07-09T17:07:01.918Z,6928.00
2018-07-09T17:08:54.864Z,7040.00
2018-07-09T17:09:54.867Z,6888.00
2018-07-09T17:11:47.791Z,6596.00
2018-07-09T17:12:47.816Z,6208.00
2018-07-09T17:14:40.752Z,5308.00
2018-07-09T17:15:40.763Z,5380.00
2018-07-09T17:17:33.680Z,5972.00
2018-07-09T17:18:33.708Z,6012.00
2018-07-09T17:20:26.654Z,7164.00
2018-07-09T17:21:26.655Z,7428.00
2018-07-09T17:23:19.743Z,7248.00
2018-07-09T17:24:19.750Z,6856.00
2018-07-09T17:26:12.675Z,6128.00
2018-07-09T17:27:12.797Z,6124.00